Time;durP1;ratioP1;P1;durP2;ratioP2;P2;SDS_P1;SDS_P2;PMS_P1;PMS_P2;Temp;Humidity;BMP_temperature;BMP_pressure;BME280_temperature;BME280_humidity;BME280_pressure;Samples;Min_cycle;Max_cycle;Signal;HPM_P1;HPM_P2
2021/05/26 00:23:19;;;;;;;1.83;0.60;;;13.90;56.20;;;;;;5349420;22;20056;-69
2021/05/26 00:25:45;;;;;;;1.20;0.40;;;13.80;56.30;;;;;;5073593;28;20033;-70
2021/05/26 00:28:11;;;;;;;1.75;0.50;;;13.80;56.60;;;;;;5054803;28;20028;-69
2021/05/26 00:30:44;;;;;;;2.40;1.00;;;13.80;56.60;;;;;;5054816;28;20098;-69
2021/05/26 00:33:09;;;;;;;1.73;0.57;;;13.80;56.70;;;;;;5054053;28;20116;-70
2021/05/26 00:35:35;;;;;;;1.38;0.30;;;13.80;56.90;;;;;;5054835;28;20053;-69
2021/05/26 00:38:03;;;;;;;1.65;0.50;;;13.80;57.10;;;;;;5072347;28;20051;-69
2021/05/26 00:40:29;;;;;;;3.60;0.68;;;13.80;57.40;;;;;;5072694;28;20035;-69
2021/05/26 00:42:54;;;;;;;3.67;0.50;;;13.80;57.50;;;;;;5072084;28;20021;-69
2021/05/26 00:45:20;;;;;;;1.98;0.50;;;13.80;57.90;;;;;;5054626;28;20020;-69
2021/05/26 00:47:48;;;;;;;2.20;0.40;;;13.80;58.10;;;;;;5054657;28;20032;-69
2021/05/26 00:50:20;;;;;;;1.98;0.55;;;13.80;58.50;;;;;;5053866;28;20446;-69
2021/05/26 00:52:47;;;;;;;1.00;0.57;;;13.70;58.80;;;;;;5072393;28;20159;-68
2021/05/26 00:55:15;;;;;;;2.55;0.60;;;13.70;59.00;;;;;;5072020;28;20032;-70
2021/05/26 00:57:41;;;;;;;2.22;0.47;;;13.70;59.10;;;;;;5072552;28;20496;-69
2021/05/26 01:00:09;;;;;;;2.35;0.50;;;13.70;59.50;;;;;;5053954;28;20024;-70
2021/05/26 01:02:35;;;;;;;1.42;0.50;;;13.70;59.70;;;;;;5054613;28;20032;-69
2021/05/26 01:05:01;;;;;;;3.25;0.65;;;13.70;60.30;;;;;;5053925;28;20032;-69
2021/05/26 01:07:27;;;;;;;4.55;0.60;;;13.70;60.60;;;;;;5072411;28;20025;-69
2021/05/26 01:09:52;;;;;;;3.22;0.40;;;13.70;61.00;;;;;;5071820;28;20033;-70
2021/05/26 01:12:18;;;;;;;2.65;0.40;;;13.60;61.20;;;;;;5054266;28;20060;-69
2021/05/26 01:14:44;;;;;;;3.92;1.42;;;13.60;61.80;;;;;;5054447;28;20031;-69
2021/05/26 01:17:10;;;;;;;2.15;0.90;;;13.60;62.30;;;;;;5053753;28;20115;-70
2021/05/26 01:19:35;;;;;;;1.30;0.60;;;13.60;62.50;;;;;;5072276;28;20528;-69
2021/05/26 01:22:01;;;;;;;1.70;0.45;;;13.50;62.80;;;;;;5053533;28;20504;-70
2021/05/26 01:24:26;;;;;;;1.83;0.50;;;13.50;63.10;;;;;;5054412;28;20036;-69
2021/05/26 01:26:52;;;;;;;1.35;0.50;;;13.50;63.90;;;;;;5071673;28;20071;-73
2021/05/26 01:29:20;;;;;;;1.52;0.60;;;13.40;64.10;;;;;;5054304;28;20021;-69
2021/05/26 01:31:46;;;;;;;1.38;0.40;;;13.40;64.40;;;;;;5054185;28;20086;-69
2021/05/26 01:34:11;;;;;;;1.38;0.25;;;13.40;64.70;;;;;;5071570;28;20032;-69
2021/05/26 01:36:40;;;;;;;1.00;0.40;;;13.30;64.90;;;;;;5054166;28;20406;-69
2021/05/26 01:39:07;;;;;;;2.05;0.30;;;13.30;65.00;;;;;;5053561;28;20032;-69
2021/05/26 01:41:32;;;;;;;2.70;0.47;;;13.30;65.40;;;;;;5072107;28;20020;-70
2021/05/26 01:43:58;;;;;;;1.85;0.40;;;13.30;65.30;;;;;;5055007;28;20028;-69
2021/05/26 01:46:24;;;;;;;1.48;0.40;;;13.30;65.50;;;;;;5057967;28;20029;-69
2021/05/26 01:48:51;;;;;;;1.98;0.30;;;13.40;65.40;;;;;;5057908;28;20035;-69
2021/05/26 01:51:17;;;;;;;1.00;0.40;;;13.40;65.20;;;;;;5074887;28;20032;-69
2021/05/26 01:53:44;;;;;;;1.25;0.30;;;13.30;66.80;;;;;;5075927;28;20087;-69
2021/05/26 01:56:18;;;;;;;2.08;0.50;;;13.20;71.20;;;;;;5057181;28;20030;-69
2021/05/26 01:58:43;;;;;;;2.13;0.43;;;12.90;73.20;;;;;;5057731;28;20469;-69
2021/05/26 02:01:10;;;;;;;2.70;0.30;;;12.80;74.10;;;;;;5057128;28;20035;-69
2021/05/26 02:03:41;;;;;;;2.35;0.38;;;12.70;73.70;;;;;;5057675;28;20385;-69
2021/05/26 02:06:07;;;;;;;1.70;0.30;;;12.70;74.40;;;;;;5056987;28;20031;-70
2021/05/26 02:08:33;;;;;;;0.93;0.40;;;12.80;74.50;;;;;;5057722;28;20463;-69
2021/05/26 02:13:42;;;;;;;1.75;0.40;;;12.80;74.80;;;;;;5075581;28;20166;-69
2021/05/26 02:16:08;;;;;;;0.70;0.28;;;12.80;74.60;;;;;;5075006;28;20103;-69
2021/05/26 02:18:34;;;;;;;0.55;0.20;;;12.80;75.20;;;;;;5057361;28;20392;-69
2021/05/26 02:20:59;;;;;;;0.50;0.32;;;12.80;74.90;;;;;;5074647;28;20029;-70
2021/05/26 02:23:25;;;;;;;1.73;0.20;;;12.80;75.20;;;;;;5056841;28;20536;-69
2021/05/26 02:25:51;;;;;;;0.82;0.38;;;12.80;75.40;;;;;;5074828;28;20103;-69
2021/05/26 02:28:17;;;;;;;1.60;0.22;;;12.80;75.60;;;;;;5056636;28;20028;-70
2021/05/26 02:30:42;;;;;;;2.08;0.35;;;12.70;75.70;;;;;;5057020;28;20032;-69
2021/05/26 02:33:08;;;;;;;0.30;0.28;;;12.70;75.40;;;;;;5074243;28;20024;-70
2021/05/26 02:35:34;;;;;;;1.95;0.55;;;12.70;75.40;;;;;;5075026;28;20068;-69
2021/05/26 02:37:59;;;;;;;2.05;0.30;;;12.70;75.30;;;;;;5056402;28;20078;-70
2021/05/26 02:40:25;;;;;;;1.00;0.35;;;12.70;74.80;;;;;;5056924;28;20029;-69
2021/05/26 02:42:51;;;;;;;0.65;0.28;;;12.70;74.90;;;;;;5074944;28;20028;-69
2021/05/26 02:45:16;;;;;;;1.70;0.20;;;12.70;74.50;;;;;;5055928;28;20282;-69
2021/05/26 02:47:42;;;;;;;3.42;0.47;;;12.70;74.80;;;;;;5074887;28;20021;-69
2021/05/26 02:50:08;;;;;;;0.63;0.30;;;12.70;74.70;;;;;;5073851;28;20024;-69
2021/05/26 02:52:34;;;;;;;3.30;0.35;;;12.60;74.50;;;;;;5056653;28;20045;-69
2021/05/26 02:55:00;;;;;;;2.05;0.47;;;12.70;74.40;;;;;;5055956;28;20389;-69
2021/05/26 02:57:25;;;;;;;2.45;0.35;;;12.60;74.20;;;;;;5074562;28;20031;-69
2021/05/26 02:59:51;;;;;;;1.55;0.40;;;12.60;74.50;;;;;;5056673;28;20021;-69
2021/05/26 03:02:17;;;;;;;1.33;0.40;;;12.60;74.40;;;;;;5055959;28;20465;-69
2021/05/26 03:04:42;;;;;;;0.75;0.40;;;12.60;74.10;;;;;;5056520;28;20028;-69
2021/05/26 03:07:08;;;;;;;1.35;0.30;;;12.60;74.00;;;;;;5073561;28;20020;-69
2021/05/26 03:09:34;;;;;;;1.27;0.22;;;12.60;74.30;;;;;;5074389;28;20078;-69
2021/05/26 03:11:59;;;;;;;0.65;0.30;;;12.60;74.20;;;;;;5073323;28;20036;-70
2021/05/26 03:14:25;;;;;;;1.13;0.50;;;12.60;74.10;;;;;;5056583;28;20088;-69
2021/05/26 03:16:50;;;;;;;1.70;0.30;;;12.60;74.10;;;;;;5056312;28;20025;-69
2021/05/26 03:19:16;;;;;;;2.25;0.40;;;12.70;74.20;;;;;;5055656;28;20454;-69
2021/05/26 03:21:42;;;;;;;0.95;0.38;;;12.60;74.30;;;;;;5056170;28;20040;-69
2021/05/26 03:24:08;;;;;;;2.58;0.30;;;12.60;74.10;;;;;;5073690;28;20048;-69
2021/05/26 03:26:33;;;;;;;1.60;0.40;;;12.60;74.20;;;;;;5056092;28;20032;-69
2021/05/26 03:28:59;;;;;;;1.05;0.30;;;12.60;74.40;;;;;;5056069;28;20081;-69
2021/05/26 03:31:25;;;;;;;1.75;0.40;;;12.60;74.30;;;;;;5056108;28;20035;-69
2021/05/26 03:33:50;;;;;;;2.20;0.52;;;12.70;74.00;;;;;;5056152;28;20082;-69
2021/05/26 03:36:16;;;;;;;1.17;0.50;;;12.70;74.30;;;;;;5055291;28;20482;-69
2021/05/26 03:38:42;;;;;;;2.10;0.40;;;12.70;74.60;;;;;;5055948;28;20538;-69
2021/05/26 03:41:07;;;;;;;3.85;0.50;;;12.70;74.70;;;;;;5073100;28;20029;-69
2021/05/26 03:43:33;;;;;;;1.42;0.40;;;12.70;75.20;;;;;;5056029;28;20060;-70
2021/05/26 03:45:59;;;;;;;0.73;0.30;;;12.70;75.40;;;;;;5073422;28;20024;-69
2021/05/26 03:48:24;;;;;;;2.25;0.40;;;12.70;75.50;;;;;;5055069;28;20484;-69
2021/05/26 03:50:50;;;;;;;2.10;0.60;;;12.70;75.50;;;;;;5073449;28;20028;-69
2021/05/26 03:53:16;;;;;;;2.80;0.40;;;12.60;76.20;;;;;;5072814;28;20115;-69
2021/05/26 03:55:41;;;;;;;2.08;0.50;;;12.60;77.20;;;;;;5055457;28;20032;-69
2021/05/26 03:58:07;;;;;;;4.60;0.60;;;12.60;79.00;;;;;;5054905;28;20115;-70
2021/05/26 04:00:32;;;;;;;1.90;0.40;;;12.40;80.80;;;;;;5055731;28;20380;-69
2021/05/26 04:02:58;;;;;;;3.03;0.63;;;12.40;82.10;;;;;;5073276;28;20024;-69
2021/05/26 04:05:24;;;;;;;2.75;0.50;;;12.30;82.20;;;;;;5054774;28;20028;-69
2021/05/26 04:07:49;;;;;;;2.15;0.40;;;12.20;83.30;;;;;;5072732;28;20354;-69
2021/05/26 04:10:15;;;;;;;2.78;0.52;;;12.10;83.60;;;;;;5054810;28;20029;-69
2021/05/26 04:12:40;;;;;;;3.13;0.75;;;12.10;84.70;;;;;;5073093;28;20029;-69
2021/05/26 04:15:07;;;;;;;2.13;0.60;;;12.10;85.20;;;;;;5054585;28;20031;-69
2021/05/26 04:17:33;;;;;;;5.80;0.70;;;12.00;85.60;;;;;;5073072;28;20354;-69
2021/05/26 04:20:04;;;;;;;1.73;0.52;;;12.00;85.80;;;;;;5055043;28;20489;-69
2021/05/26 04:22:33;;;;;;;1.80;0.45;;;11.90;86.20;;;;;;5054742;28;20083;-69
2021/05/26 04:24:59;;;;;;;3.33;0.50;;;11.90;86.60;;;;;;5072916;28;20029;-69
2021/05/26 04:27:25;;;;;;;1.42;0.45;;;11.90;86.60;;;;;;5072262;28;20024;-69
2021/05/26 04:29:50;;;;;;;1.10;0.60;;;12.00;86.90;;;;;;5055114;28;20029;-69
2021/05/26 04:32:16;;;;;;;1.88;0.50;;;11.90;86.60;;;;;;5072154;28;20146;-69
2021/05/26 04:34:42;;;;;;;2.50;0.50;;;11.90;87.40;;;;;;5054923;28;20021;-69
2021/05/26 04:37:07;;;;;;;1.35;0.60;;;11.90;87.20;;;;;;5072186;28;20025;-69
2021/05/26 04:39:33;;;;;;;1.42;0.30;;;11.80;87.30;;;;;;5073040;28;20024;-69
2021/05/26 04:41:58;;;;;;;3.90;0.63;;;11.80;87.80;;;;;;5054843;28;20032;-69
2021/05/26 04:44:24;;;;;;;4.18;0.60;;;11.80;87.80;;;;;;5071843;28;20056;-69
2021/05/26 04:46:50;;;;;;;1.67;0.40;;;11.80;88.10;;;;;;5054759;28;20056;-69
2021/05/26 04:49:16;;;;;;;2.92;0.70;;;11.80;88.30;;;;;;5072281;28;20039;-69
2021/05/26 04:51:41;;;;;;;2.90;0.45;;;11.80;88.40;;;;;;5054468;28;20039;-69
2021/05/26 04:54:07;;;;;;;3.38;0.65;;;11.80;88.40;;;;;;5053895;28;20028;-69
2021/05/26 04:56:33;;;;;;;3.17;0.70;;;11.80;88.20;;;;;;5072486;28;20029;-69
2021/05/26 04:58:58;;;;;;;2.58;0.60;;;11.70;88.50;;;;;;5072836;28;20028;-69
2021/05/26 05:01:24;;;;;;;2.60;0.70;;;11.70;88.60;;;;;;5053932;28;20148;-69
2021/05/26 05:03:50;;;;;;;2.67;0.60;;;11.80;88.90;;;;;;5054243;28;20025;-68
2021/05/26 05:06:16;;;;;;;3.65;0.65;;;11.70;88.70;;;;;;5053659;28;20032;-69
2021/05/26 05:08:41;;;;;;;1.48;0.60;;;11.70;89.00;;;;;;5072331;28;20029;-68
2021/05/26 05:11:07;;;;;;;2.83;0.75;;;11.70;89.20;;;;;;5053656;28;20039;-69
2021/05/26 05:13:33;;;;;;;3.55;0.35;;;11.70;89.00;;;;;;5054382;28;20021;-69
2021/05/26 05:15:58;;;;;;;4.55;0.60;;;11.70;89.20;;;;;;5072381;28;20025;-69
2021/05/26 05:18:24;;;;;;;1.85;0.50;;;11.60;88.90;;;;;;5072331;28;20027;-69
2021/05/26 05:20:49;;;;;;;1.95;0.52;;;11.60;89.60;;;;;;5058447;28;20024;-69
2021/05/26 05:23:15;;;;;;;1.75;0.47;;;11.60;89.90;;;;;;5075575;28;20063;-69
2021/05/26 05:25:41;;;;;;;2.00;0.40;;;11.60;89.60;;;;;;5058411;28;20470;-69
2021/05/26 05:28:07;;;;;;;1.63;0.55;;;11.60;89.80;;;;;;5058189;28;20115;-72
2021/05/26 05:30:32;;;;;;;1.55;0.63;;;11.60;89.80;;;;;;5058215;28;20457;-69
2021/05/26 05:32:58;;;;;;;0.60;0.40;;;11.60;90.00;;;;;;5076223;28;20025;-69
2021/05/26 05:35:24;;;;;;;3.45;0.73;;;11.60;90.10;;;;;;5057622;28;20069;-69
2021/05/26 05:37:49;;;;;;;5.93;0.50;;;11.60;89.90;;;;;;5058363;28;20488;-69
2021/05/26 05:40:15;;;;;;;1.42;0.40;;;11.60;90.10;;;;;;5057609;28;20119;-69
2021/05/26 05:42:41;;;;;;;4.72;0.63;;;11.70;90.10;;;;;;5058217;28;20064;-69
2021/05/26 05:45:08;;;;;;;2.38;0.38;;;11.60;90.10;;;;;;5075961;28;20066;-68
2021/05/26 05:47:35;;;;;;;3.65;1.33;;;11.60;90.30;;;;;;5058054;28;20043;-69
2021/05/26 05:50:02;;;;;;;3.58;0.60;;;11.50;90.40;;;;;;5057826;28;20526;-69
2021/05/26 05:52:27;;;;;;;3.50;0.60;;;11.50;90.30;;;;;;5056819;28;20037;-69
2021/05/26 05:54:53;;;;;;;1.65;0.50;;;11.50;90.50;;;;;;5057885;28;20078;-68
2021/05/26 05:57:18;;;;;;;2.95;0.93;;;11.50;90.70;;;;;;5075181;28;20026;-69
2021/05/26 05:59:44;;;;;;;2.35;0.95;;;11.50;90.60;;;;;;5075748;28;20377;-69
2021/05/26 06:02:10;;;;;;;5.20;0.80;;;11.50;90.80;;;;;;5074764;28;20028;-69
2021/05/26 06:04:35;;;;;;;3.05;0.57;;;11.50;90.70;;;;;;5057912;28;20024;-69
2021/05/26 06:07:01;;;;;;;2.90;0.90;;;11.50;90.80;;;;;;5057744;28;20025;-69
2021/05/26 06:09:26;;;;;;;2.00;0.63;;;11.50;90.90;;;;;;5074885;28;20537;-69
2021/05/26 06:11:53;;;;;;;1.52;0.70;;;11.40;90.80;;;;;;5075534;28;20033;-69
2021/05/26 06:14:19;;;;;;;1.88;0.50;;;11.40;90.90;;;;;;5074807;28;20065;-69
2021/05/26 06:16:45;;;;;;;1.17;0.50;;;11.40;91.00;;;;;;5057740;28;20060;-69
2021/05/26 06:19:11;;;;;;;2.08;0.45;;;11.40;90.90;;;;;;5056746;28;20055;-70
2021/05/26 06:21:37;;;;;;;2.40;0.70;;;11.40;91.00;;;;;;5057324;28;20028;-69
2021/05/26 06:24:03;;;;;;;4.30;0.60;;;11.40;90.90;;;;;;5057023;28;20057;-68
2021/05/26 06:26:31;;;;;;;2.58;0.60;;;11.50;91.10;;;;;;5056694;28;20120;-69
2021/05/26 06:29:00;;;;;;;2.45;0.73;;;11.50;91.00;;;;;;5074729;28;20020;-68
2021/05/26 06:31:26;;;;;;;1.52;0.55;;;11.50;91.10;;;;;;5074454;28;20089;-69
2021/05/26 06:33:52;;;;;;;3.88;0.80;;;11.50;91.10;;;;;;5057203;28;20127;-69
2021/05/26 06:36:18;;;;;;;3.35;0.85;;;11.50;90.90;;;;;;5056425;28;20024;-69
2021/05/26 06:38:44;;;;;;;3.25;0.70;;;11.50;90.90;;;;;;5074725;28;20033;-69
2021/05/26 06:41:10;;;;;;;2.63;0.65;;;11.50;91.00;;;;;;5074632;28;20058;-69
2021/05/26 06:43:36;;;;;;;2.55;0.73;;;11.60;91.00;;;;;;5056270;28;20036;-68
2021/05/26 06:46:02;;;;;;;1.65;0.65;;;11.50;90.90;;;;;;5056929;28;20035;-69
2021/05/26 06:48:27;;;;;;;1.05;0.50;;;11.60;90.80;;;;;;5056171;28;20078;-69
2021/05/26 06:50:53;;;;;;;0.98;0.40;;;11.60;90.70;;;;;;5056712;28;20037;-69
2021/05/26 06:53:18;;;;;;;4.00;0.90;;;11.60;90.70;;;;;;5073744;28;20037;-69
2021/05/26 06:55:44;;;;;;;1.92;0.40;;;11.60;90.80;;;;;;5074429;28;20025;-69
2021/05/26 06:58:10;;;;;;;4.22;0.90;;;11.60;90.80;;;;;;5074347;28;20389;-69
2021/05/26 07:00:36;;;;;;;2.20;0.68;;;11.60;90.80;;;;;;5056010;28;20500;-69
2021/05/26 07:03:03;;;;;;;2.33;0.70;;;11.60;91.00;;;;;;5074249;28;20533;-69
2021/05/26 07:05:28;;;;;;;2.05;0.65;;;11.60;90.80;;;;;;5073593;28;20024;-69
2021/05/26 07:07:55;;;;;;;2.88;0.70;;;11.60;90.60;;;;;;5056459;28;20028;-71
2021/05/26 07:10:20;;;;;;;6.93;0.93;;;11.60;90.40;;;;;;5073344;28;20024;-69
2021/05/26 07:12:48;;;;;;;4.53;0.80;;;11.60;90.60;;;;;;5056014;28;20040;-69
2021/05/26 07:15:14;;;;;;;3.85;0.90;;;11.60;90.50;;;;;;5073651;28;20470;-70
2021/05/26 07:17:40;;;;;;;3.88;0.80;;;11.60;90.60;;;;;;5056238;28;20031;-69
2021/05/26 07:20:07;;;;;;;1.55;0.40;;;11.60;90.40;;;;;;5073888;28;20033;-70
2021/05/26 07:22:32;;;;;;;2.55;0.63;;;11.60;90.50;;;;;;5055276;28;20048;-69
2021/05/26 07:24:58;;;;;;;1.83;0.70;;;11.60;90.00;;;;;;5073836;28;20114;-69
2021/05/26 07:27:24;;;;;;;1.30;0.70;;;11.70;90.40;;;;;;5055507;28;20425;-69
2021/05/26 07:29:49;;;;;;;2.33;0.50;;;11.60;89.90;;;;;;5056060;28;20025;-70
2021/05/26 07:32:15;;;;;;;1.50;0.57;;;11.70;89.90;;;;;;5055487;28;20036;-69
2021/05/26 07:34:41;;;;;;;1.42;0.50;;;11.70;90.10;;;;;;5056019;28;20436;-69
2021/05/26 07:37:07;;;;;;;2.75;0.88;;;11.60;90.00;;;;;;5055909;28;20074;-69
2021/05/26 07:39:34;;;;;;;2.15;0.70;;;11.70;90.00;;;;;;5055313;28;20059;-69
2021/05/26 07:42:02;;;;;;;1.15;0.60;;;11.70;90.30;;;;;;5072834;28;20140;-69
2021/05/26 07:44:27;;;;;;;3.13;0.70;;;11.70;90.00;;;;;;5055164;28;20115;-69
2021/05/26 07:46:54;;;;;;;1.90;0.57;;;11.60;90.10;;;;;;5055850;28;20119;-69
2021/05/26 07:49:21;;;;;;;1.65;0.60;;;11.60;90.30;;;;;;5055145;28;20035;-69
2021/05/26 07:51:50;;;;;;;3.15;0.60;;;11.60;90.20;;;;;;5073226;28;20036;-69
2021/05/26 07:54:16;;;;;;;2.05;0.70;;;11.60;90.20;;;;;;5073049;28;20033;-69
2021/05/26 07:56:42;;;;;;;3.92;0.70;;;11.60;90.10;;;;;;5055517;28;20467;-70
2021/05/26 07:59:07;;;;;;;2.72;0.70;;;11.60;90.30;;;;;;5055563;28;20020;-71
2021/05/26 08:01:33;;;;;;;2.53;0.70;;;11.60;90.20;;;;;;5072744;28;20029;-69
2021/05/26 08:03:59;;;;;;;1.60;0.60;;;11.60;90.50;;;;;;5055068;28;20113;-69
2021/05/26 08:06:25;;;;;;;3.10;0.70;;;11.70;90.50;;;;;;5054826;28;20108;-69
2021/05/26 08:08:50;;;;;;;3.38;0.70;;;11.60;90.50;;;;;;5073479;28;20025;-69
2021/05/26 08:11:16;;;;;;;3.47;0.60;;;11.70;90.60;;;;;;5073075;28;20465;-69
2021/05/26 08:13:42;;;;;;;2.45;0.85;;;11.70;90.60;;;;;;5073102;28;20032;-69
2021/05/26 08:16:09;;;;;;;2.15;0.50;;;11.70;89.90;;;;;;5073098;28;20043;-69
2021/05/26 08:18:35;;;;;;;2.15;0.60;;;11.70;89.40;;;;;;5054515;28;20024;-70
2021/05/26 08:21:00;;;;;;;3.53;0.60;;;11.80;90.10;;;;;;5073011;28;20039;-69
2021/05/26 08:23:26;;;;;;;1.90;0.88;;;11.80;89.60;;;;;;5071928;28;20056;-69
2021/05/26 08:25:52;;;;;;;2.42;0.63;;;11.80;89.80;;;;;;5055121;28;20031;-69
2021/05/26 08:28:18;;;;;;;2.80;0.82;;;11.90;88.50;;;;;;5054610;28;20028;-73
2021/05/26 08:30:45;;;;;;;1.17;0.40;;;11.80;89.00;;;;;;5073019;28;20479;-69
2021/05/26 08:33:11;;;;;;;3.25;0.75;;;11.80;88.60;;;;;;5054523;28;20024;-70
2021/05/26 08:35:37;;;;;;;2.08;0.70;;;11.90;88.70;;;;;;5054158;28;20060;-69
2021/05/26 08:38:03;;;;;;;2.20;0.30;;;11.90;88.50;;;;;;5054747;28;20060;-70
2021/05/26 08:40:30;;;;;;;1.77;0.55;;;11.90;87.40;;;;;;5054157;28;20355;-70
2021/05/26 08:42:57;;;;;;;2.50;0.60;;;11.90;89.10;;;;;;5072452;28;20064;-70
2021/05/26 08:45:22;;;;;;;1.75;0.57;;;11.80;87.80;;;;;;5054089;28;20028;-69
2021/05/26 08:47:52;;;;;;;1.88;0.50;;;11.80;86.90;;;;;;5072641;28;20428;-69
2021/05/26 08:50:18;;;;;;;0.85;0.70;;;11.90;87.80;;;;;;5072574;28;20026;-69
2021/05/26 08:52:45;;;;;;;2.33;0.57;;;11.90;87.40;;;;;;5054411;28;20051;-69
2021/05/26 08:55:12;;;;;;;0.80;0.50;;;11.90;87.00;;;;;;5072578;28;20029;-69
2021/05/26 08:57:38;;;;;;;1.58;0.60;;;11.90;86.70;;;;;;5053989;28;20024;-69
2021/05/26 09:00:05;;;;;;;4.72;0.70;;;12.00;87.40;;;;;;5072549;28;20359;-69
2021/05/26 09:02:31;;;;;;;1.88;0.63;;;12.00;86.90;;;;;;5071847;28;20025;-69
2021/05/26 09:04:57;;;;;;;5.95;1.35;;;12.00;87.90;;;;;;5054095;28;20374;-69
2021/05/26 09:07:23;;;;;;;4.72;0.90;;;12.10;88.30;;;;;;5053874;28;20123;-70
2021/05/26 09:09:54;;;;;;;4.28;0.80;;;12.10;88.70;;;;;;5072480;28;20099;-70
2021/05/26 09:12:37;;;;;;;2.70;0.82;;;12.20;89.50;;;;;;5054121;28;20040;-72
2021/05/26 09:15:07;;;;;;;3.33;0.82;;;12.30;89.30;;;;;;5054446;28;20033;-69
2021/05/26 09:17:33;;;;;;;4.85;0.88;;;12.40;88.80;;;;;;5053943;28;20043;-69
2021/05/26 09:20:25;;;;;;;2.15;1.00;;;12.50;89.60;;;;;;5072413;28;20028;-69
2021/05/26 09:23:00;;;;;;;4.53;1.23;;;12.60;88.90;;;;;;5054081;28;20489;-69
2021/05/26 09:25:29;;;;;;;5.25;0.93;;;12.60;87.80;;;;;;5053754;28;20480;-69
2021/05/26 09:28:18;;;;;;;3.05;1.00;;;12.70;87.80;;;;;;5054307;28;20081;-71
2021/05/26 09:30:48;;;;;;;2.53;0.95;;;12.70;88.30;;;;;;5071583;28;20099;-71
2021/05/26 09:33:44;;;;;;;2.85;0.90;;;12.80;88.30;;;;;;5054233;28;20543;-71
2021/05/26 09:36:24;;;;;;;3.88;0.90;;;12.80;87.40;;;;;;5052070;28;20043;-71
2021/05/26 09:38:56;;;;;;;3.20;0.55;;;12.90;87.80;;;;;;5053889;28;20063;-71
2021/05/26 09:41:28;;;;;;;2.25;0.60;;;12.90;85.80;;;;;;5053931;28;20477;-74
2021/05/26 09:43:58;;;;;;;5.15;0.82;;;12.80;84.30;;;;;;5072212;28;20024;-71
2021/05/26 09:46:35;;;;;;;2.85;0.50;;;12.80;85.00;;;;;;5071540;28;20021;-71
2021/05/26 09:49:09;;;;;;;1.02;0.40;;;12.80;83.60;;;;;;5054063;28;20025;-71
2021/05/26 09:51:37;;;;;;;1.63;0.50;;;12.80;83.30;;;;;;5053437;28;20039;-71
2021/05/26 09:54:10;;;;;;;1.17;0.55;;;12.70;84.50;;;;;;5072081;28;20390;-71
2021/05/26 09:56:36;;;;;;;3.30;0.77;;;12.70;85.20;;;;;;5053441;28;20083;-70
2021/05/26 09:59:03;;;;;;;2.83;0.70;;;12.60;84.50;;;;;;5072250;28;20025;-69
2021/05/26 10:01:30;;;;;;;3.35;0.80;;;12.50;84.90;;;;;;5071262;28;20029;-70
2021/05/26 10:03:56;;;;;;;1.67;1.08;;;12.50;85.40;;;;;;5053947;28;20480;-69
2021/05/26 10:06:24;;;;;;;2.15;0.90;;;12.50;86.20;;;;;;5057486;28;20029;-70
2021/05/26 10:08:52;;;;;;;1.48;0.60;;;12.50;85.50;;;;;;5057542;28;20074;-69
2021/05/26 10:11:19;;;;;;;3.05;0.80;;;12.50;85.30;;;;;;5075063;28;20039;-69
2021/05/26 10:13:46;;;;;;;3.30;0.95;;;12.50;84.70;;;;;;5074876;28;20405;-69
2021/05/26 10:16:16;;;;;;;2.22;0.68;;;12.50;85.00;;;;;;5075370;28;20035;-69
2021/05/26 10:18:43;;;;;;;2.53;0.57;;;12.50;83.90;;;;;;5056799;28;20048;-69
2021/05/26 10:21:08;;;;;;;2.42;0.82;;;12.50;83.50;;;;;;5057066;28;20032;-69
2021/05/26 10:23:34;;;;;;;3.40;0.70;;;12.40;85.60;;;;;;5074470;28;20060;-70
2021/05/26 10:26:00;;;;;;;1.90;0.77;;;12.50;84.40;;;;;;5075211;28;20021;-69
2021/05/26 10:28:26;;;;;;;4.18;0.68;;;12.40;84.10;;;;;;5056717;28;20029;-70
2021/05/26 10:30:52;;;;;;;1.92;0.70;;;12.40;84.40;;;;;;5075080;28;20484;-69
2021/05/26 10:33:17;;;;;;;1.73;0.50;;;12.50;85.20;;;;;;5057153;28;20028;-70
2021/05/26 10:35:57;;;;;;;2.28;0.60;;;12.50;84.50;;;;;;5074490;28;20024;-70
2021/05/26 10:38:23;;;;;;;1.33;0.65;;;12.40;84.30;;;;;;5057018;28;20029;-69
2021/05/26 10:40:53;;;;;;;1.35;0.60;;;12.50;84.80;;;;;;5056443;28;20028;-69
2021/05/26 10:43:19;;;;;;;3.72;0.50;;;12.50;84.90;;;;;;5057102;28;20051;-69
2021/05/26 10:45:47;;;;;;;1.15;0.20;;;12.60;83.70;;;;;;5074270;28;20508;-69
2021/05/26 10:48:13;;;;;;;1.00;0.40;;;12.60;83.80;;;;;;5057001;28;20420;-69
2021/05/26 10:50:45;;;;;;;2.08;0.50;;;12.60;83.50;;;;;;5056236;28;20021;-69
2021/05/26 10:53:11;;;;;;;3.15;0.50;;;12.60;83.90;;;;;;5056687;28;20032;-69
2021/05/26 10:55:44;;;;;;;2.45;0.50;;;12.60;84.00;;;;;;5056098;28;20035;-69
2021/05/26 10:58:25;;;;;;;2.00;0.30;;;12.70;83.60;;;;;;5056876;28;20056;-69
2021/05/26 11:00:57;;;;;;;2.20;0.50;;;12.60;84.00;;;;;;5056145;28;20029;-70
2021/05/26 11:06:14;;;;;;;1.63;0.70;;;12.60;83.70;;;;;;5074204;28;20033;-69
2021/05/26 11:08:51;;;;;;;1.45;0.55;;;12.50;84.30;;;;;;5056052;28;20028;-69
2021/05/26 11:11:26;;;;;;;1.90;0.60;;;12.50;83.10;;;;;;5074433;28;20062;-69
2021/05/26 11:14:22;;;;;;;2.53;0.52;;;12.50;83.60;;;;;;5073898;28;20059;-69
2021/05/26 11:16:49;;;;;;;3.25;0.80;;;12.60;83.50;;;;;;5025540;28;20037;-69
2021/05/26 11:19:21;;;;;;;2.45;0.65;;;12.60;82.70;;;;;;5056319;28;20017;-69
2021/05/26 11:21:52;;;;;;;;;;;12.60;82.50;;;;;;5056115;28;20028;-69
2021/05/26 11:24:18;;;;;;;1.17;0.40;;;12.60;83.00;;;;;;5055960;28;19920;-69
2021/05/26 11:26:45;;;;;;;2.90;0.68;;;12.60;83.20;;;;;;5073493;28;20090;-69
2021/05/26 11:29:10;;;;;;;0.68;0.50;;;12.60;83.00;;;;;;5073808;28;20025;-69
2021/05/26 11:31:36;;;;;;;3.10;0.90;;;12.70;82.70;;;;;;5073449;28;20043;-69
2021/05/26 11:34:07;;;;;;;1.15;0.50;;;12.70;82.50;;;;;;5073948;28;20458;-69
2021/05/26 11:36:46;;;;;;;2.75;0.65;;;12.80;81.80;;;;;;5055394;28;20059;-69
2021/05/26 11:39:27;;;;;;;1.77;0.57;;;12.90;82.70;;;;;;5073936;28;20067;-69
2021/05/26 11:42:17;;;;;;;1.33;0.55;;;12.80;83.10;;;;;;5073253;28;20058;-69
2021/05/26 11:44:58;;;;;;;2.35;0.63;;;12.90;83.30;;;;;;5055241;28;20481;-69
2021/05/26 11:47:38;;;;;;;2.05;0.60;;;12.80;82.50;;;;;;5055727;28;20025;-69
2021/05/26 11:50:13;;;;;;;0.70;0.30;;;12.80;82.80;;;;;;5055731;28;20032;-69
2021/05/26 11:52:40;;;;;;;3.55;0.70;;;12.80;82.70;;;;;;5054884;28;20048;-69
2021/05/26 11:55:07;;;;;;;1.85;0.40;;;12.90;83.20;;;;;;5055589;28;20087;-69
2021/05/26 11:57:32;;;;;;;3.25;0.50;;;13.00;82.00;;;;;;5073135;28;20024;-69
2021/05/26 11:59:59;;;;;;;1.65;0.40;;;13.00;81.70;;;;;;5073449;28;20097;-69
2021/05/26 12:02:24;;;;;;;1.60;0.40;;;13.00;81.80;;;;;;5073672;28;20033;-69
2021/05/26 12:04:50;;;;;;;4.22;0.70;;;13.10;81.50;;;;;;5054744;28;20078;-69
2021/05/26 12:07:26;;;;;;;2.90;0.38;;;13.10;82.00;;;;;;5055347;28;20119;-69
2021/05/26 12:10:00;;;;;;;3.60;0.43;;;13.10;82.50;;;;;;5054713;28;20024;-69
2021/05/26 12:12:27;;;;;;;2.03;0.52;;;13.10;81.80;;;;;;5073166;28;20193;-69
2021/05/26 12:14:54;;;;;;;2.67;0.50;;;13.10;83.10;;;;;;5072203;28;20489;-69
2021/05/26 12:17:21;;;;;;;0.85;0.40;;;13.10;82.60;;;;;;5055248;28;20107;-69
2021/05/26 12:19:48;;;;;;;1.85;0.40;;;13.10;82.50;;;;;;5054523;28;20034;-69
2021/05/26 12:22:23;;;;;;;1.65;0.52;;;13.10;82.90;;;;;;5054695;28;20025;-69
2021/05/26 12:24:58;;;;;;;1.90;0.45;;;13.30;82.40;;;;;;5072071;28;20119;-69
2021/05/26 12:27:46;;;;;;;2.10;0.40;;;13.40;81.70;;;;;;5072473;28;20527;-69
2021/05/26 12:30:25;;;;;;;1.35;0.40;;;13.50;81.20;;;;;;5055054;28;20119;-69
2021/05/26 12:32:56;;;;;;;0.77;0.43;;;13.50;81.50;;;;;;5054292;28;20028;-70
2021/05/26 12:35:26;;;;;;;1.85;0.30;;;13.50;81.80;;;;;;5055118;28;20471;-70
2021/05/26 12:37:57;;;;;;;2.10;0.40;;;13.50;81.70;;;;;;5054315;28;20248;-70
2021/05/26 12:40:25;;;;;;;0.90;0.30;;;13.50;80.90;;;;;;5054911;28;20102;-70
2021/05/26 12:42:51;;;;;;;1.20;0.40;;;13.60;81.10;;;;;;5054201;28;20111;-70
2021/05/26 12:45:18;;;;;;;0.90;0.40;;;13.80;81.00;;;;;;5054796;28;20127;-70
2021/05/26 12:47:43;;;;;;;0.47;0.28;;;13.90;79.90;;;;;;5072065;28;20060;-70
2021/05/26 12:50:21;;;;;;;2.95;0.50;;;13.90;80.20;;;;;;5054673;28;20418;-70
2021/05/26 12:52:52;;;;;;;2.13;0.45;;;13.80;79.60;;;;;;5071873;28;20044;-70
2021/05/26 12:55:20;;;;;;;2.83;0.40;;;13.80;81.30;;;;;;5072688;28;20028;-70
2021/05/26 12:57:46;;;;;;;1.15;0.55;;;13.90;84.00;;;;;;5054076;28;20024;-70
2021/05/26 13:00:24;;;;;;;1.42;0.43;;;14.10;82.50;;;;;;5054373;28;20024;-70
2021/05/26 13:03:02;;;;;;;0.93;0.40;;;14.30;82.20;;;;;;5054020;28;20039;-70
2021/05/26 13:05:43;;;;;;;2.47;0.50;;;14.70;81.20;;;;;;5054598;28;20033;-70
2021/05/26 13:08:14;;;;;;;0.47;0.30;;;15.20;78.90;;;;;;5054491;28;20428;-70
2021/05/26 13:10:59;;;;;;;1.58;0.40;;;15.10;77.60;;;;;;5053911;28;20020;-70
2021/05/26 13:13:30;;;;;;;1.83;0.60;;;14.80;79.70;;;;;;5054390;28;20060;-70
2021/05/26 13:15:58;;;;;;;2.15;0.55;;;14.60;80.40;;;;;;5071842;28;20064;-70
2021/05/26 13:18:26;;;;;;;1.65;0.50;;;14.60;79.90;;;;;;5054490;28;20024;-70